createdAt,value
2023-02-09T00:03:35.997Z,61.05
2023-02-09T00:04:35.935Z,61.46
2023-02-09T00:06:35.897Z,60.31
2023-02-09T00:09:35.875Z,59.05
2023-02-09T00:12:35.840Z,57.03
2023-02-09T00:14:35.820Z,58.61
2023-02-09T00:16:35.873Z,99.99
2023-02-09T00:23:35.730Z,63.04
2023-02-09T00:33:35.632Z,99.99
2023-02-09T00:53:35.430Z,54.12
2023-02-09T00:55:35.409Z,54.12
2023-02-09T01:52:34.830Z,99.99
2023-02-09T01:53:34.825Z,57.45
2023-02-09T01:54:34.810Z,99.99
2023-02-09T01:55:34.799Z,56.71
2023-02-09T01:56:34.793Z,57.03
2023-02-09T01:57:34.783Z,99.99
2023-02-09T01:58:34.775Z,99.99
2023-02-09T01:59:34.759Z,99.99
2023-02-09T02:01:34.767Z,99.99
2023-02-09T02:02:34.795Z,99.99
2023-02-09T02:05:34.697Z,99.99
2023-02-09T02:06:34.688Z,58.30
2023-02-09T02:08:34.667Z,99.99
2023-02-09T02:09:34.659Z,57.03
2023-02-09T02:11:34.641Z,56.95
2023-02-09T02:12:34.635Z,57.14
2023-02-09T02:31:34.513Z,57.82
2023-02-09T02:42:34.305Z,58.69
2023-02-09T02:51:34.220Z,99.99
2023-02-09T02:53:34.199Z,99.99
2023-02-09T03:00:34.129Z,59.21
2023-02-09T03:04:34.091Z,99.99
2023-02-09T03:05:34.204Z,60.37
2023-02-09T03:06:34.099Z,99.99
2023-02-09T03:08:34.049Z,60.69
2023-02-09T03:11:34.018Z,60.71
2023-02-09T03:23:33.922Z,61.98
2023-02-09T05:20:32.729Z,62.08
2023-02-09T05:22:32.706Z,61.13
2023-02-09T05:27:32.666Z,62.19
2023-02-09T05:28:32.647Z,99.99
2023-02-09T05:38:32.545Z,99.99
2023-02-09T06:39:31.928Z,99.99
2023-02-09T06:41:31.911Z,58.58
2023-02-09T06:52:31.802Z,99.99
2023-02-09T06:53:31.788Z,99.99
2023-02-09T06:56:31.758Z,57.64
2023-02-09T07:04:31.733Z,58.16
2023-02-09T07:33:31.383Z,99.99
2023-02-09T07:37:31.343Z,57.17
2023-02-09T07:38:31.353Z,99.99
2023-02-09T07:40:31.306Z,99.99
2023-02-09T07:41:31.299Z,99.99
2023-02-09T07:42:31.388Z,99.99
2023-02-09T07:45:31.254Z,99.99
2023-02-09T07:46:31.282Z,99.99
2023-02-09T07:53:31.175Z,56.51
2023-02-09T08:21:30.888Z,99.99
2023-02-09T08:22:30.877Z,56.04
2023-02-09T08:36:30.735Z,99.99
2023-02-09T08:37:30.725Z,99.99
2023-02-09T08:39:30.709Z,99.99
2023-02-09T08:40:30.696Z,0.00
2023-02-09T08:41:30.683Z,55.27
2023-02-09T09:03:30.519Z,50.27
2023-02-09T09:04:30.460Z,49.95
2023-02-09T09:05:32.092Z,49.28
2023-02-09T09:06:30.437Z,48.76
2023-02-09T09:07:30.426Z,99.99
2023-02-09T09:08:30.422Z,0.00
2023-02-09T09:09:30.399Z,47.46
2023-02-09T09:10:30.393Z,47.44
2023-02-09T09:11:30.398Z,46.82
2023-02-09T09:12:30.376Z,47.02
2023-02-09T09:13:30.360Z,47.15
2023-02-09T09:14:30.373Z,46.94
2023-02-09T09:15:30.340Z,47.46
2023-02-09T09:16:30.443Z,47.17
2023-02-09T09:17:30.331Z,47.05
2023-02-09T09:18:30.315Z,46.52
2023-02-09T09:19:30.296Z,46.30
2023-02-09T09:20:30.290Z,46.27
2023-02-09T09:21:30.276Z,45.21
2023-02-09T09:22:30.273Z,44.69
2023-02-09T09:23:30.260Z,44.62
2023-02-09T09:24:30.318Z,45.36
2023-02-09T09:25:30.245Z,45.56
2023-02-09T09:26:30.229Z,45.05
2023-02-09T09:27:30.213Z,45.02
2023-02-09T09:28:30.254Z,44.17
2023-02-09T09:29:30.202Z,44.37
2023-02-09T09:30:30.216Z,44.83
2023-02-09T09:31:30.317Z,44.48
2023-02-09T09:32:30.315Z,43.67
2023-02-09T09:33:30.157Z,43.23
2023-02-09T09:34:30.153Z,43.46
2023-02-09T09:35:30.132Z,44.40
2023-02-09T09:36:30.122Z,45.12
2023-02-09T09:37:30.114Z,44.50
2023-02-09T09:38:30.099Z,44.11
2023-02-09T09:39:30.087Z,44.59
2023-02-09T09:40:30.081Z,43.32
2023-02-09T09:41:30.068Z,42.79
2023-02-09T09:42:30.056Z,43.34
2023-02-09T09:43:30.048Z,43.44
2023-02-09T09:44:30.035Z,44.15
2023-02-09T09:45:30.028Z,44.17
2023-02-09T09:46:30.065Z,43.75
2023-02-09T09:47:30.004Z,43.65
2023-02-09T09:48:29.994Z,43.96
2023-02-09T09:49:29.987Z,43.32
2023-02-09T09:50:29.972Z,43.73
2023-02-09T09:51:29.961Z,43.42
2023-02-09T09:52:29.953Z,42.67
2023-02-09T09:53:29.942Z,42.77
2023-02-09T09:54:29.936Z,42.96
2023-02-09T09:55:29.923Z,41.69
2023-02-09T09:56:29.911Z,40.95
2023-02-09T09:57:29.902Z,40.93
2023-02-09T09:58:29.902Z,42.11
2023-02-09T09:59:29.877Z,41.47
2023-02-09T10:00:29.869Z,41.07
2023-02-09T10:01:29.939Z,40.95
2023-02-09T10:02:29.871Z,40.86
2023-02-09T10:03:29.841Z,41.05
2023-02-09T10:04:29.916Z,40.76
2023-02-09T10:05:29.817Z,41.30
2023-02-09T10:06:29.817Z,41.83
2023-02-09T10:07:29.796Z,41.90
2023-02-09T10:08:29.794Z,41.05
2023-02-09T10:09:29.776Z,41.07
2023-02-09T10:10:29.779Z,41.88
2023-02-09T10:11:29.763Z,41.04
2023-02-09T10:12:29.747Z,39.96
2023-02-09T10:13:29.731Z,39.45
2023-02-09T10:14:29.716Z,39.77
2023-02-09T10:15:29.713Z,39.47
2023-02-09T10:16:29.761Z,40.02
2023-02-09T10:17:29.686Z,40.74
2023-02-09T10:18:29.701Z,39.98
2023-02-09T10:19:29.674Z,39.44
2023-02-09T10:20:29.667Z,38.80
2023-02-09T10:21:29.650Z,39.23
2023-02-09T10:22:29.639Z,38.83
2023-02-09T10:23:29.630Z,39.68
2023-02-09T10:24:29.636Z,39.89
2023-02-09T10:25:29.607Z,39.56
2023-02-09T10:26:29.590Z,39.33
2023-02-09T10:27:29.582Z,38.81
2023-02-09T10:28:29.678Z,38.90
2023-02-09T10:29:29.609Z,38.47
2023-02-09T10:30:29.650Z,38.04
2023-02-09T10:31:29.651Z,38.06
2023-02-09T10:32:29.527Z,38.26
2023-02-09T10:33:29.526Z,37.50
2023-02-09T10:34:29.528Z,36.96
2023-02-09T10:35:29.490Z,37.38
2023-02-09T10:36:29.485Z,37.87
2023-02-09T10:37:29.473Z,38.71
2023-02-09T10:38:31.156Z,39.02
2023-02-09T10:39:29.450Z,38.26
2023-02-09T10:40:29.449Z,38.59
2023-02-09T10:41:29.433Z,38.26
2023-02-09T10:42:29.416Z,38.14
2023-02-09T10:43:29.407Z,37.28
2023-02-09T10:44:29.398Z,36.76
2023-02-09T10:45:29.385Z,36.33
2023-02-09T10:46:29.398Z,35.90
2023-02-09T10:47:29.371Z,35.28
2023-02-09T10:48:29.354Z,34.98
2023-02-09T10:49:29.358Z,35.81
2023-02-09T10:50:29.372Z,36.04
2023-02-09T10:51:29.463Z,36.88
2023-02-09T10:52:29.318Z,36.98
2023-02-09T10:53:29.310Z,37.17
2023-02-09T10:54:29.301Z,36.83
2023-02-09T10:55:29.288Z,36.62
2023-02-09T10:56:29.271Z,37.88
2023-02-09T10:57:29.271Z,38.28
2023-02-09T10:58:29.260Z,37.52
2023-02-09T10:59:29.246Z,37.21
2023-02-09T11:00:29.246Z,37.29
2023-02-09T11:01:29.284Z,36.88
2023-02-09T11:02:29.209Z,36.55
2023-02-09T11:03:29.237Z,36.00
2023-02-09T11:04:29.238Z,34.61
2023-02-09T11:05:29.209Z,33.75
2023-02-09T11:06:29.228Z,32.82
2023-02-09T11:07:31.689Z,33.35
2023-02-09T11:08:29.148Z,33.88
2023-02-09T11:09:29.137Z,33.66
2023-02-09T11:10:29.133Z,33.66
2023-02-09T11:11:29.135Z,34.08
2023-02-09T11:12:29.107Z,33.92
2023-02-09T11:13:31.519Z,34.88
2023-02-09T11:14:29.088Z,34.95
2023-02-09T11:15:29.077Z,34.66
2023-02-09T11:16:55.841Z,35.62
2023-02-09T11:17:29.055Z,35.63
2023-02-09T11:18:29.046Z,35.38
2023-02-09T11:20:24.137Z,35.29
2023-02-09T11:20:29.040Z,35.60
2023-02-09T11:21:29.023Z,35.58
2023-02-09T11:23:56.199Z,35.05
2023-02-09T11:23:57.614Z,35.54
2023-02-09T11:24:57.602Z,34.59
2023-02-09T11:28:21.758Z,34.21
2023-02-09T11:28:23.329Z,33.78
2023-02-09T11:29:23.213Z,34.08
2023-02-09T15:27:59.065Z,33.88
2023-02-09T15:28:00.710Z,31.48
2023-02-09T15:29:00.538Z,31.17
2023-02-09T15:30:03.802Z,31.90
2023-02-09T15:31:00.583Z,32.22
2023-02-09T15:32:00.508Z,32.76
2023-02-09T15:33:00.493Z,33.38
2023-02-09T15:34:01.165Z,33.69
2023-02-09T15:35:00.498Z,34.00
2023-02-09T15:36:00.462Z,34.02
2023-02-09T15:37:00.448Z,34.66
2023-02-09T15:38:00.436Z,34.97
2023-02-09T15:39:00.427Z,34.64
2023-02-09T15:40:00.421Z,33.69
2023-02-09T15:41:00.411Z,33.38
2023-02-09T15:42:00.394Z,33.88
2023-02-09T15:43:00.392Z,33.27
2023-02-09T15:44:00.399Z,33.48
2023-02-09T15:45:00.366Z,33.61
2023-02-09T15:46:00.465Z,34.12
2023-02-09T15:47:00.345Z,99.99
2023-02-09T15:48:00.337Z,33.80
2023-02-09T15:49:00.325Z,33.90
2023-02-09T15:50:00.315Z,33.47
2023-02-09T15:51:00.341Z,32.95
2023-02-09T15:52:00.288Z,33.45
2023-02-09T15:53:00.278Z,33.05
2023-02-09T15:54:00.290Z,32.94
2023-02-09T15:55:00.263Z,33.06
2023-02-09T15:56:00.253Z,33.48
2023-02-09T15:57:00.241Z,34.00
2023-02-09T15:58:00.232Z,34.33
2023-02-09T15:59:00.217Z,34.64
2023-02-09T16:00:00.312Z,34.53
2023-02-09T16:01:00.195Z,34.45
2023-02-09T16:02:00.525Z,34.97
2023-02-09T16:03:00.227Z,35.07
2023-02-09T16:04:12.901Z,34.76
2023-02-09T16:05:00.162Z,35.05
2023-02-09T16:06:00.170Z,35.16
2023-02-09T16:07:00.136Z,35.69
2023-02-09T16:08:00.132Z,35.98
2023-02-09T16:09:00.138Z,35.98
2023-02-09T16:10:00.167Z,35.98
2023-02-09T16:11:00.136Z,36.19
2023-02-09T16:12:00.150Z,35.07
2023-02-09T16:13:00.139Z,35.60
2023-02-09T16:14:00.085Z,36.74
2023-02-09T16:15:00.091Z,37.48
2023-02-09T16:16:14.829Z,37.48
2023-02-09T16:17:01.174Z,37.50
2023-02-09T16:18:00.028Z,37.52
2023-02-09T16:19:00.004Z,38.04
2023-02-09T16:19:59.997Z,38.37
2023-02-09T16:20:59.999Z,38.90
2023-02-09T16:21:59.981Z,39.44
2023-02-09T16:23:06.277Z,39.96
2023-02-09T16:24:01.003Z,39.98
2023-02-09T16:24:59.946Z,40.29
2023-02-09T16:26:01.713Z,40.60
2023-02-09T16:26:59.926Z,41.02
2023-02-09T16:28:00.021Z,40.62
2023-02-09T16:28:59.902Z,40.93
2023-02-09T16:29:59.897Z,41.16
2023-02-09T16:30:59.976Z,41.47
2023-02-09T16:31:59.898Z,41.47
2023-02-09T16:32:59.866Z,41.90
2023-02-09T16:33:59.851Z,42.32
2023-02-09T16:35:14.602Z,42.65
2023-02-09T16:36:00.865Z,43.19
2023-02-09T16:36:59.836Z,43.63
2023-02-09T16:37:59.820Z,43.94
2023-02-09T16:38:59.806Z,44.25
2023-02-09T16:39:59.792Z,45.31
2023-02-09T16:40:59.785Z,45.94
2023-02-09T16:41:59.774Z,46.15
2023-02-09T16:42:59.767Z,46.06
2023-02-09T16:43:59.752Z,46.38
2023-02-09T16:44:59.739Z,45.96
2023-02-09T16:46:03.833Z,45.56
2023-02-09T16:46:59.793Z,45.56
2023-02-09T16:47:59.913Z,45.88
2023-02-09T16:48:59.748Z,46.94
2023-02-09T16:49:59.752Z,47.36
2023-02-09T16:50:59.690Z,47.17
2023-02-09T16:51:59.673Z,47.69
2023-02-09T16:52:59.662Z,47.90
2023-02-09T16:53:59.649Z,48.44
2023-02-09T16:54:59.643Z,47.93
2023-02-09T16:55:59.631Z,47.40
2023-02-09T16:56:59.621Z,48.55
2023-02-09T16:57:59.610Z,49.07
2023-02-09T16:58:59.605Z,49.10
2023-02-09T16:59:59.644Z,48.68
2023-02-09T17:00:59.648Z,49.12
2023-02-09T17:01:59.614Z,49.85
2023-02-09T17:02:59.557Z,50.17
2023-02-09T17:03:59.571Z,50.71
2023-02-09T17:04:59.542Z,51.12
2023-02-09T17:05:59.526Z,51.44
2023-02-09T17:06:59.519Z,51.15
2023-02-09T17:07:59.505Z,50.21
2023-02-09T17:08:59.495Z,50.21
2023-02-09T18:12:58.850Z,99.99
2023-02-09T18:15:58.816Z,99.99
2023-02-09T18:17:58.802Z,99.99
2023-02-09T18:20:58.766Z,58.34
2023-02-09T18:23:58.760Z,99.99
2023-02-09T18:24:58.724Z,58.34
2023-02-09T18:26:58.714Z,99.99
2023-02-09T18:27:58.777Z,99.99
2023-02-09T18:28:58.681Z,99.99
2023-02-09T18:29:58.673Z,99.99
2023-02-09T18:30:58.706Z,99.99
2023-02-09T18:31:58.732Z,99.99
2023-02-09T18:32:58.643Z,99.99
2023-02-09T18:37:58.587Z,99.99
2023-02-09T18:42:58.581Z,60.82
2023-02-09T18:43:58.521Z,60.68
2023-02-09T18:45:58.556Z,99.99
2023-02-09T18:46:58.490Z,99.99
2023-02-09T18:49:58.457Z,59.24
2023-02-09T18:50:58.447Z,59.13
2023-02-09T19:02:58.411Z,61.45
2023-02-09T19:16:58.185Z,99.99
2023-02-09T19:43:57.941Z,61.50
2023-02-09T19:44:57.908Z,60.63
2023-02-09T19:45:57.996Z,60.32
2023-02-09T19:50:58.000Z,62.21
2023-02-09T21:00:57.198Z,62.11
2023-02-09T21:04:57.134Z,99.99
2023-02-09T21:05:57.110Z,62.92
2023-02-09T21:06:57.103Z,63.45
2023-02-09T21:07:57.096Z,62.61
2023-02-09T21:08:57.082Z,62.61
2023-02-09T21:10:57.159Z,99.99
2023-02-09T21:17:56.992Z,99.99
2023-02-09T21:21:56.955Z,99.99
2023-02-09T21:34:56.884Z,64.95
2023-02-09T21:41:56.756Z,99.99
2023-02-09T21:42:56.751Z,69.23
2023-02-09T21:43:56.739Z,69.23
2023-02-09T21:49:56.674Z,68.38
2023-02-09T21:50:57.088Z,99.99
2023-02-09T21:51:56.676Z,67.54
2023-02-09T21:53:56.643Z,99.99
2023-02-09T21:54:56.634Z,99.99
2023-02-09T21:55:56.635Z,67.75
2023-02-09T21:56:56.612Z,68.07
2023-02-09T21:58:56.584Z,99.99
2023-02-09T22:07:56.514Z,66.25
2023-02-09T22:09:56.477Z,68.25
2023-02-09T22:12:56.443Z,69.12
2023-02-09T22:19:56.373Z,66.17
2023-02-09T23:40:55.586Z,72.21
2023-02-09T23:46:55.522Z,99.99
2023-02-09T23:52:55.461Z,99.99
2023-02-09T23:53:55.456Z,99.99
2023-02-09T23:55:55.438Z,99.99
2023-02-09T23:57:55.412Z,99.99
2023-02-09T23:59:55.416Z,99.99
